Time;durP1;ratioP1;P1;durP2;ratioP2;P2;SDS_P1;SDS_P2;PMS_P1;PMS_P2;Temp;Humidity;BMP_temperature;BMP_pressure;BME280_temperature;BME280_humidity;BME280_pressure;Samples;Min_cycle;Max_cycle;Signal;HPM_P1;HPM_P2
2024/01/16 00:00:51;;;;;;;33.90;15.65;;;;;;;;;;6079100;23;20046;-82
2024/01/16 00:03:17;;;;;;;26.67;16.17;;;;;;;;;;6075509;23;20374;-82
2024/01/16 00:05:43;;;;;;;31.55;15.60;;;;;;;;;;6073913;23;20054;-83
2024/01/16 00:08:10;;;;;;;26.52;13.30;;;;;;;;;;6073719;23;20561;-81
2024/01/16 00:10:36;;;;;;;26.80;14.13;;;;;;;;;;6073974;23;20041;-82
2024/01/16 00:13:04;;;;;;;23.45;12.93;;;;;;;;;;6073845;23;20062;-82
2024/01/16 00:15:30;;;;;;;30.95;13.73;;;;;;;;;;6073692;23;20061;-82
2024/01/16 00:17:57;;;;;;;20.55;12.73;;;;;;;;;;6072669;23;20054;-81
2024/01/16 00:20:25;;;;;;;25.80;13.93;;;;;;;;;;6073790;23;20401;-83
2024/01/16 00:22:51;;;;;;;23.85;12.18;;;;;;;;;;6074182;23;20082;-83
2024/01/16 00:25:19;;;;;;;24.33;13.25;;;;;;;;;;6073472;23;20062;-81
2024/01/16 00:27:46;;;;;;;32.78;13.90;;;;;;;;;;6072675;23;20030;-81
2024/01/16 00:30:14;;;;;;;27.40;13.48;;;;;;;;;;6074442;23;20058;-81
2024/01/16 00:32:40;;;;;;;30.50;14.63;;;;;;;;;;6080584;23;20094;-81
2024/01/16 00:35:07;;;;;;;26.67;13.35;;;;;;;;;;6080512;23;20050;-81
2024/01/16 00:37:33;;;;;;;23.40;13.82;;;;;;;;;;6081172;23;20027;-82
2024/01/16 00:40:00;;;;;;;24.48;14.13;;;;;;;;;;6080379;23;20051;-82
2024/01/16 00:42:26;;;;;;;27.88;14.85;;;;;;;;;;6078412;23;20019;-83
2024/01/16 00:44:53;;;;;;;28.45;14.55;;;;;;;;;;6078090;23;20102;-81
2024/01/16 00:47:20;;;;;;;27.45;14.93;;;;;;;;;;6077641;23;20051;-82
2024/01/16 00:49:47;;;;;;;36.08;16.83;;;;;;;;;;6077397;23;20023;-81
2024/01/16 00:52:13;;;;;;;25.50;14.50;;;;;;;;;;6076842;23;20408;-81
2024/01/16 00:54:41;;;;;;;26.80;14.38;;;;;;;;;;6077658;23;20476;-81
2024/01/16 00:57:08;;;;;;;29.02;14.05;;;;;;;;;;6078149;23;20086;-82
2024/01/16 00:59:34;;;;;;;24.52;13.35;;;;;;;;;;6079128;23;20027;-82
2024/01/16 01:02:00;;;;;;;27.85;13.90;;;;;;;;;;6072378;23;20463;-82
2024/01/16 01:04:28;;;;;;;27.88;14.07;;;;;;;;;;6072234;23;20026;-81
2024/01/16 01:06:55;;;;;;;23.85;13.98;;;;;;;;;;6071648;23;20484;-81
2024/01/16 01:09:21;;;;;;;23.50;14.30;;;;;;;;;;6072239;23;20148;-81
2024/01/16 01:11:48;;;;;;;30.35;15.60;;;;;;;;;;6071565;23;20023;-82
2024/01/16 01:14:14;;;;;;;25.60;14.05;;;;;;;;;;6072535;23;20030;-81
2024/01/16 01:16:42;;;;;;;29.33;13.75;;;;;;;;;;6071794;23;20337;-81
2024/01/16 01:19:09;;;;;;;24.73;12.38;;;;;;;;;;6071642;23;20033;-80
2024/01/16 01:21:37;;;;;;;24.20;12.70;;;;;;;;;;6072153;23;20026;-80
2024/01/16 01:24:04;;;;;;;25.33;11.32;;;;;;;;;;6072103;23;20050;-80
2024/01/16 01:26:30;;;;;;;20.58;11.48;;;;;;;;;;6071969;23;20038;-80
2024/01/16 01:28:56;;;;;;;26.27;11.93;;;;;;;;;;6072529;23;20050;-80
2024/01/16 01:31:24;;;;;;;18.48;10.77;;;;;;;;;;6071542;23;20058;-80
2024/01/16 01:33:50;;;;;;;23.77;11.98;;;;;;;;;;6071348;23;20027;-80
2024/01/16 01:36:17;;;;;;;22.65;11.43;;;;;;;;;;6071293;23;20106;-81
2024/01/16 01:38:45;;;;;;;21.58;11.25;;;;;;;;;;6072379;23;20055;-80
2024/01/16 01:41:11;;;;;;;21.08;11.38;;;;;;;;;;6071439;23;20054;-81
2024/01/16 01:43:38;;;;;;;21.73;11.45;;;;;;;;;;6071894;23;20027;-81
2024/01/16 01:46:09;;;;;;;25.40;12.80;;;;;;;;;;6071773;23;20117;-80
2024/01/16 01:48:37;;;;;;;21.02;14.05;;;;;;;;;;6072096;23;20145;-81
2024/01/16 01:51:03;;;;;;;29.55;15.07;;;;;;;;;;6071524;23;20082;-80
2024/01/16 01:53:31;;;;;;;30.80;15.75;;;;;;;;;;6073222;23;20033;-81
2024/01/16 01:56:00;;;;;;;31.17;15.27;;;;;;;;;;6071357;23;20054;-80
2024/01/16 01:58:26;;;;;;;27.92;14.60;;;;;;;;;;6072559;23;20054;-81
2024/01/16 02:00:53;;;;;;;28.33;15.85;;;;;;;;;;6073140;23;20057;-81
2024/01/16 02:03:19;;;;;;;23.95;13.73;;;;;;;;;;6072836;23;20102;-80
2024/01/16 02:05:46;;;;;;;25.58;13.88;;;;;;;;;;6072935;23;20042;-81
2024/01/16 02:08:12;;;;;;;25.33;12.15;;;;;;;;;;6074209;23;20026;-83
2024/01/16 02:10:39;;;;;;;23.38;11.73;;;;;;;;;;6075884;23;20367;-82
2024/01/16 02:13:07;;;;;;;21.30;12.50;;;;;;;;;;6077221;23;20486;-82
2024/01/16 02:15:33;;;;;;;23.13;10.82;;;;;;;;;;6075367;23;20058;-80
2024/01/16 02:17:59;;;;;;;16.73;11.50;;;;;;;;;;6074891;23;20054;-81
2024/01/16 02:20:26;;;;;;;20.20;11.15;;;;;;;;;;6073922;23;20062;-81
2024/01/16 02:22:54;;;;;;;27.20;10.82;;;;;;;;;;6074758;23;20103;-81
2024/01/16 02:25:22;;;;;;;22.20;11.75;;;;;;;;;;6074374;23;20046;-82
2024/01/16 02:27:48;;;;;;;17.67;10.40;;;;;;;;;;6074157;23;20344;-83
2024/01/16 02:30:15;;;;;;;25.63;10.57;;;;;;;;;;6074892;23;20404;-84
2024/01/16 02:32:41;;;;;;;21.63;11.02;;;;;;;;;;6074346;23;20023;-82
2024/01/16 02:35:09;;;;;;;17.35;10.57;;;;;;;;;;6073207;23;20396;-82
2024/01/16 02:37:36;;;;;;;17.83;10.45;;;;;;;;;;6074124;23;20031;-82
2024/01/16 02:40:05;;;;;;;21.85;10.35;;;;;;;;;;6073552;23;20487;-82
2024/01/16 02:42:33;;;;;;;22.02;11.25;;;;;;;;;;6073137;23;20022;-81
2024/01/16 02:45:00;;;;;;;17.88;11.02;;;;;;;;;;6073496;23;20050;-83
2024/01/16 02:47:26;;;;;;;22.98;10.68;;;;;;;;;;6073577;23;20050;-82
2024/01/16 02:49:52;;;;;;;24.33;11.65;;;;;;;;;;6074346;23;20404;-83
2024/01/16 02:52:19;;;;;;;23.05;11.40;;;;;;;;;;6074763;23;20053;-84
2024/01/16 02:54:45;;;;;;;25.20;11.85;;;;;;;;;;6073690;23;20131;-82
2024/01/16 02:57:11;;;;;;;20.25;11.85;;;;;;;;;;6073659;23;20098;-82
2024/01/16 02:59:39;;;;;;;17.13;11.65;;;;;;;;;;6075677;23;20038;-80
2024/01/16 03:02:05;;;;;;;26.10;12.00;;;;;;;;;;6077151;23;20078;-81
2024/01/16 03:04:32;;;;;;;20.42;11.60;;;;;;;;;;6080057;23;20037;-83
2024/01/16 03:06:58;;;;;;;27.67;12.45;;;;;;;;;;6079598;23;20027;-82
2024/01/16 03:09:25;;;;;;;23.10;12.23;;;;;;;;;;6080445;23;20026;-81
2024/01/16 03:11:51;;;;;;;24.25;12.00;;;;;;;;;;6079560;23;20026;-81
2024/01/16 03:14:18;;;;;;;22.73;12.32;;;;;;;;;;6079352;23;20049;-81
2024/01/16 03:16:46;;;;;;;25.83;12.10;;;;;;;;;;6073866;23;20078;-83
2024/01/16 03:19:13;;;;;;;22.25;12.13;;;;;;;;;;6075409;23;20057;-85
2024/01/16 03:21:39;;;;;;;21.48;11.43;;;;;;;;;;6075055;23;20027;-83
2024/01/16 03:24:06;;;;;;;20.80;11.57;;;;;;;;;;6074769;23;20027;-83
2024/01/16 03:26:33;;;;;;;19.60;10.90;;;;;;;;;;6074709;23;20027;-83
2024/01/16 03:29:00;;;;;;;21.23;12.20;;;;;;;;;;6075336;23;20129;-83
2024/01/16 03:31:26;;;;;;;28.00;12.13;;;;;;;;;;6076134;23;20409;-84
2024/01/16 03:33:54;;;;;;;25.48;11.65;;;;;;;;;;6076884;23;20509;-84
2024/01/16 03:36:21;;;;;;;25.98;12.35;;;;;;;;;;6075895;23;20034;-83
2024/01/16 03:38:47;;;;;;;20.00;11.70;;;;;;;;;;6074364;23;20106;-84
2024/01/16 03:41:13;;;;;;;24.75;12.05;;;;;;;;;;6075609;23;20057;-83
2024/01/16 03:43:40;;;;;;;20.85;11.98;;;;;;;;;;6075963;23;20023;-84
2024/01/16 03:46:07;;;;;;;21.25;12.23;;;;;;;;;;6075034;23;20026;-82
2024/01/16 03:48:33;;;;;;;24.67;13.00;;;;;;;;;;6074045;23;20066;-82
2024/01/16 03:51:02;;;;;;;25.30;12.75;;;;;;;;;;6074492;23;20027;-82
2024/01/16 03:53:29;;;;;;;21.55;12.07;;;;;;;;;;6075037;23;20023;-82
2024/01/16 03:55:55;;;;;;;26.00;12.73;;;;;;;;;;6076781;23;20038;-85
2024/01/16 03:58:22;;;;;;;27.20;13.30;;;;;;;;;;6076673;23;20078;-84
2024/01/16 04:00:50;;;;;;;24.70;14.32;;;;;;;;;;6077496;23;20055;-84
2024/01/16 04:03:17;;;;;;;28.42;14.60;;;;;;;;;;6078136;23;20351;-85
2024/01/16 04:05:43;;;;;;;21.35;14.00;;;;;;;;;;6084101;23;20022;-84
2024/01/16 04:08:12;;;;;;;28.95;14.88;;;;;;;;;;6080599;23;20047;-84
2024/01/16 04:10:38;;;;;;;28.90;13.55;;;;;;;;;;6076409;23;20050;-83
2024/01/16 04:13:06;;;;;;;20.50;12.27;;;;;;;;;;6078201;23;20019;-84
2024/01/16 04:15:32;;;;;;;25.92;13.57;;;;;;;;;;6077292;23;20037;-84
2024/01/16 04:17:58;;;;;;;20.50;11.88;;;;;;;;;;6078072;23;20480;-85
2024/01/16 04:20:25;;;;;;;27.80;11.88;;;;;;;;;;6077474;23;20026;-83
2024/01/16 04:22:51;;;;;;;25.23;12.10;;;;;;;;;;6073961;23;20487;-84
2024/01/16 04:25:19;;;;;;;23.75;11.70;;;;;;;;;;6074006;23;20455;-84
2024/01/16 04:27:45;;;;;;;23.80;11.68;;;;;;;;;;6074681;23;20031;-84
2024/01/16 04:30:12;;;;;;;20.08;11.45;;;;;;;;;;6075259;23;20058;-84
2024/01/16 04:32:39;;;;;;;26.98;11.68;;;;;;;;;;6074587;23;20057;-84
2024/01/16 04:35:05;;;;;;;22.38;10.45;;;;;;;;;;6074106;23;20030;-84
2024/01/16 04:37:32;;;;;;;26.23;11.98;;;;;;;;;;6074809;23;20058;-84
2024/01/16 04:39:59;;;;;;;23.33;11.05;;;;;;;;;;6074772;23;20050;-85
2024/01/16 04:42:27;;;;;;;19.45;11.70;;;;;;;;;;6073736;23;20026;-84
2024/01/16 04:44:54;;;;;;;28.42;15.10;;;;;;;;;;6074504;23;20053;-83
2024/01/16 04:47:20;;;;;;;28.92;16.77;;;;;;;;;;6073975;23;20110;-84
2024/01/16 04:49:47;;;;;;;36.22;17.92;;;;;;;;;;6072969;23;20022;-84
2024/01/16 04:52:13;;;;;;;33.15;17.10;;;;;;;;;;6074099;23;20040;-82
2024/01/16 04:54:40;;;;;;;32.72;20.10;;;;;;;;;;6075356;23;20026;-83
2024/01/16 04:57:06;;;;;;;29.98;18.00;;;;;;;;;;6075538;23;20364;-84
2024/01/16 04:59:34;;;;;;;39.00;17.77;;;;;;;;;;6076506;23;20027;-83
2024/01/16 05:02:00;;;;;;;29.00;16.38;;;;;;;;;;6074027;23;20033;-82
2024/01/16 05:04:27;;;;;;;25.83;14.98;;;;;;;;;;6071745;23;20015;-83
2024/01/16 05:06:54;;;;;;;33.28;14.50;;;;;;;;;;6071816;23;20029;-83
2024/01/16 05:09:21;;;;;;;28.63;12.70;;;;;;;;;;6072249;23;20022;-83
2024/01/16 05:11:48;;;;;;;29.55;12.00;;;;;;;;;;6072272;23;20055;-84
2024/01/16 05:14:14;;;;;;;22.38;10.70;;;;;;;;;;6070342;23;20037;-83
2024/01/16 05:16:42;;;;;;;18.80;10.35;;;;;;;;;;6071348;23;20034;-83
2024/01/16 05:19:08;;;;;;;24.58;10.75;;;;;;;;;;6075226;23;20340;-83
2024/01/16 05:21:35;;;;;;;18.00;9.60;;;;;;;;;;6076571;23;20046;-83
2024/01/16 05:24:01;;;;;;;20.48;9.27;;;;;;;;;;6069621;23;20415;-83
2024/01/16 05:26:28;;;;;;;22.17;9.43;;;;;;;;;;6069042;23;20086;-83
2024/01/16 05:28:54;;;;;;;24.25;9.60;;;;;;;;;;6072952;23;20047;-83
2024/01/16 05:31:20;;;;;;;18.20;8.45;;;;;;;;;;6073649;23;20030;-83
2024/01/16 05:33:48;;;;;;;20.73;8.25;;;;;;;;;;6074054;23;20082;-83
2024/01/16 05:36:15;;;;;;;15.23;7.80;;;;;;;;;;6072487;23;20324;-83
2024/01/16 05:38:41;;;;;;;20.15;8.30;;;;;;;;;;6074280;23;20030;-83
2024/01/16 05:41:10;;;;;;;14.15;7.03;;;;;;;;;;6074122;23;20034;-83
2024/01/16 05:43:36;;;;;;;16.58;7.38;;;;;;;;;;6075331;23;20048;-83
2024/01/16 05:46:02;;;;;;;17.27;7.90;;;;;;;;;;6074289;23;20050;-82
2024/01/16 05:48:29;;;;;;;20.42;7.68;;;;;;;;;;6075955;23;20097;-83
2024/01/16 05:50:57;;;;;;;17.95;8.35;;;;;;;;;;6076253;23;20057;-83
2024/01/16 05:53:23;;;;;;;16.20;7.20;;;;;;;;;;6076184;23;20023;-84
2024/01/16 05:55:49;;;;;;;15.73;6.80;;;;;;;;;;6075745;23;20038;-82
2024/01/16 05:58:16;;;;;;;14.98;6.90;;;;;;;;;;6074477;23;20282;-83
2024/01/16 06:00:42;;;;;;;17.30;6.63;;;;;;;;;;6076241;23;20050;-84
2024/01/16 06:03:09;;;;;;;16.77;7.13;;;;;;;;;;6076182;23;20104;-83
2024/01/16 06:05:38;;;;;;;14.15;5.95;;;;;;;;;;6077717;23;20026;-83
2024/01/16 06:08:06;;;;;;;17.10;6.20;;;;;;;;;;6075637;23;20494;-83
2024/01/16 06:10:32;;;;;;;16.52;6.00;;;;;;;;;;6075702;23;20031;-84
2024/01/16 06:12:59;;;;;;;16.80;5.93;;;;;;;;;;6075703;23;20054;-84
2024/01/16 06:15:25;;;;;;;20.08;6.65;;;;;;;;;;6074669;23;20022;-84
2024/01/16 06:17:51;;;;;;;12.05;6.43;;;;;;;;;;6080098;23;20031;-83
2024/01/16 06:20:18;;;;;;;15.30;6.30;;;;;;;;;;6073643;23;20027;-83
2024/01/16 06:22:44;;;;;;;20.80;7.70;;;;;;;;;;6073807;23;20030;-84
2024/01/16 06:25:12;;;;;;;15.95;6.45;;;;;;;;;;6074991;23;20043;-85
2024/01/16 06:27:38;;;;;;;18.27;6.07;;;;;;;;;;6072701;23;20026;-84
2024/01/16 06:30:05;;;;;;;18.35;7.20;;;;;;;;;;6082171;23;20038;-84
2024/01/16 06:32:32;;;;;;;17.33;7.30;;;;;;;;;;6082338;23;20035;-85
2024/01/16 06:47:26;;;;;;;17.90;8.67;;;;;;;;;;5986667;23;20412;-85
2024/01/16 06:50:07;;;;;;;22.75;9.13;;;;;;;;;;6070749;23;20019;-85
2024/01/16 06:55:28;;;;;;;19.27;7.65;;;;;;;;;;6064349;23;20023;-85
2024/01/16 06:58:07;;;;;;;16.00;8.10;;;;;;;;;;6081815;23;20101;-84
2024/01/16 07:00:57;;;;;;;20.25;7.85;;;;;;;;;;6083298;23;20019;-86
2024/01/16 07:03:30;;;;;;;22.70;8.30;;;;;;;;;;6084807;23;20015;-86
2024/01/16 07:06:00;;;;;;;23.67;8.45;;;;;;;;;;6086407;23;20030;-87
2024/01/16 07:08:26;;;;;;;25.92;8.52;;;;;;;;;;6088610;23;20022;-84
2024/01/16 07:10:57;;;;;;;21.55;7.60;;;;;;;;;;6087643;23;20023;-85
2024/01/16 07:13:23;;;;;;;17.08;7.10;;;;;;;;;;6080897;23;20109;-85
2024/01/16 07:15:58;;;;;;;13.27;7.00;;;;;;;;;;6076881;23;20019;-84
2024/01/16 07:21:20;;;;;;;23.30;7.88;;;;;;;;;;6076182;23;20385;-86
2024/01/16 07:23:52;;;;;;;12.48;7.25;;;;;;;;;;6075700;23;20026;-85
2024/01/16 07:29:08;;;;;;;15.80;6.95;;;;;;;;;;6102801;23;20022;-82
2024/01/16 07:31:38;;;;;;;23.65;8.07;;;;;;;;;;6103965;23;20038;-82
2024/01/16 07:34:08;;;;;;;20.90;7.78;;;;;;;;;;6112282;23;20022;-80
2024/01/16 07:36:38;;;;;;;12.65;6.70;;;;;;;;;;6102303;23;20050;-80
2024/01/16 07:39:12;;;;;;;16.05;7.15;;;;;;;;;;6083176;23;20034;-81
2024/01/16 07:41:39;;;;;;;17.80;7.55;;;;;;;;;;6085824;23;20090;-79
2024/01/16 07:44:05;;;;;;;16.20;7.00;;;;;;;;;;6109419;23;20018;-78
2024/01/16 07:46:32;;;;;;;16.38;6.60;;;;;;;;;;6108916;23;20129;-78
2024/01/16 07:48:58;;;;;;;22.38;7.20;;;;;;;;;;6102371;23;20022;-77
2024/01/16 07:51:26;;;;;;;18.90;7.15;;;;;;;;;;6094208;23;20359;-78
2024/01/16 07:54:05;;;;;;;16.15;7.20;;;;;;;;;;6070328;23;20042;-80
2024/01/16 07:56:31;;;;;;;16.25;6.50;;;;;;;;;;6070962;23;20050;-79
2024/01/16 07:58:57;;;;;;;15.00;6.95;;;;;;;;;;6069344;23;20103;-80
2024/01/16 08:01:24;;;;;;;12.88;6.60;;;;;;;;;;6070198;23;20065;-79
2024/01/16 08:03:51;;;;;;;15.25;6.82;;;;;;;;;;6071748;23;20054;-79
2024/01/16 08:06:17;;;;;;;17.65;6.60;;;;;;;;;;6073116;23;20027;-80
2024/01/16 08:08:46;;;;;;;12.98;6.85;;;;;;;;;;6073736;23;20037;-80
2024/01/16 08:11:12;;;;;;;16.45;6.05;;;;;;;;;;6073231;23;20035;-80
2024/01/16 08:13:38;;;;;;;11.77;6.28;;;;;;;;;;6072887;23;20050;-79
2024/01/16 08:16:05;;;;;;;13.73;6.20;;;;;;;;;;6069562;23;20027;-78
2024/01/16 08:18:32;;;;;;;14.35;6.28;;;;;;;;;;6071966;23;20464;-80
2024/01/16 08:20:58;;;;;;;13.68;6.35;;;;;;;;;;6070434;23;20065;-80
2024/01/16 08:27:16;;;;;;;21.80;5.78;;;;;;;;;;5174910;27;20989;-81
2024/01/16 08:30:14;;;;;;;15.30;6.13;;;;;;;;;;5148958;27;20055;-79
2024/01/16 08:35:48;;;;;;;16.80;5.82;;;;;;;;;;5152166;27;20103;-80
2024/01/16 08:41:34;;;;;;;15.85;6.93;;;;;;;;;;4901896;27;20517;-81
2024/01/16 08:44:12;;;;;;;16.75;6.20;;;;;;;;;;5027080;28;20105;-80
2024/01/16 08:49:48;;;;;;;17.98;5.88;;;;;;;;;;5008052;28;20519;-81
2024/01/16 08:55:41;;;;;;;11.57;5.25;;;;;;;;;;5055976;28;20053;-81
2024/01/16 09:01:30;;;;;;;13.15;6.05;;;;;;;;;;5033598;28;20117;-82
2024/01/16 09:09:51;;;;;;;15.70;5.82;;;;;;;;;;4973251;28;20118;-80
2024/01/16 09:18:49;;;;;;;15.35;5.30;;;;;;;;;;5023978;28;20061;-80
2024/01/16 09:21:34;;;;;;;14.55;5.72;;;;;;;;;;5034230;28;20057;-81
2024/01/16 09:24:21;;;;;;;18.02;6.72;;;;;;;;;;5034359;28;20096;-82
2024/01/16 09:29:53;;;;;;;15.15;6.43;;;;;;;;;;5001044;28;20045;-82
2024/01/16 09:38:30;;;;;;;17.98;6.90;;;;;;;;;;4980076;28;20154;-84
2024/01/16 09:59:06;;;;;;;14.15;6.65;;;;;;;;;;5050783;22;20053;-90
2024/01/16 10:01:34;;;;;;;15.93;6.80;;;;;;;;;;5022841;28;20049;-90
2024/01/16 10:04:00;;;;;;;18.08;7.05;;;;;;;;;;5011066;28;20105;-90
2024/01/16 10:06:28;;;;;;;16.27;6.53;;;;;;;;;;5026995;28;20054;-90
2024/01/16 10:08:54;;;;;;;9.93;6.07;;;;;;;;;;5022172;28;20112;-90
2024/01/16 10:11:21;;;;;;;14.20;6.95;;;;;;;;;;5021616;28;20046;-91
2024/01/16 10:13:47;;;;;;;16.67;7.10;;;;;;;;;;5020596;28;20053;-90
2024/01/16 10:16:15;;;;;;;16.83;6.90;;;;;;;;;;5021137;28;20195;-91
2024/01/16 10:18:43;;;;;;;16.30;7.25;;;;;;;;;;5020892;28;20116;-91
2024/01/16 10:21:20;;;;;;;16.08;6.60;;;;;;;;;;5004897;28;20136;-91
2024/01/16 10:23:47;;;;;;;17.33;8.07;;;;;;;;;;5021376;28;20057;-91
2024/01/16 10:26:14;;;;;;;14.05;6.53;;;;;;;;;;5022960;28;20467;-91
2024/01/16 10:32:13;;;;;;;19.42;7.10;;;;;;;;;;5021305;28;20054;-91
2024/01/16 10:35:08;;;;;;;10.18;6.05;;;;;;;;;;5023332;28;20050;-90
2024/01/16 10:40:37;;;;;;;18.35;6.43;;;;;;;;;;5022738;28;20020;-91
2024/01/16 10:43:05;;;;;;;18.27;6.70;;;;;;;;;;5019806;28;20057;-91
2024/01/16 10:45:32;;;;;;;22.45;6.75;;;;;;;;;;5019158;28;20140;-90
2024/01/16 10:48:03;;;;;;;18.65;6.45;;;;;;;;;;5017914;28;20202;-91
2024/01/16 10:50:30;;;;;;;16.63;6.32;;;;;;;;;;5019279;28;20489;-91
2024/01/16 10:53:00;;;;;;;14.98;6.53;;;;;;;;;;5019633;28;20452;-91
2024/01/16 10:55:28;;;;;;;13.82;7.18;;;;;;;;;;5019145;28;20061;-91
2024/01/16 10:57:56;;;;;;;12.38;7.55;;;;;;;;;;5020118;28;20348;-91
2024/01/16 11:00:24;;;;;;;14.82;6.43;;;;;;;;;;5019462;28;20102;-91
2024/01/16 11:02:52;;;;;;;16.17;6.65;;;;;;;;;;5020554;28;20117;-91
2024/01/16 11:05:21;;;;;;;12.32;6.47;;;;;;;;;;5020046;28;20077;-91
2024/01/16 11:07:48;;;;;;;11.27;6.30;;;;;;;;;;5020715;28;20050;-91
2024/01/16 11:10:15;;;;;;;15.90;6.57;;;;;;;;;;5020421;28;20504;-91
2024/01/16 11:12:42;;;;;;;13.38;6.50;;;;;;;;;;5019698;28;20313;-90
2024/01/16 11:15:12;;;;;;;14.10;6.38;;;;;;;;;;5019469;28;20046;-91
2024/01/16 11:17:39;;;;;;;13.57;5.63;;;;;;;;;;5019921;28;20050;-90
2024/01/16 11:20:09;;;;;;;16.27;6.65;;;;;;;;;;5019947;28;20065;-91
2024/01/16 11:22:38;;;;;;;13.23;6.75;;;;;;;;;;5019956;28;20050;-91
2024/01/16 11:25:08;;;;;;;17.63;6.68;;;;;;;;;;5018742;28;20046;-93
2024/01/16 11:27:35;;;;;;;11.65;6.05;;;;;;;;;;5020466;28;20158;-92
2024/01/16 11:30:01;;;;;;;10.38;5.90;;;;;;;;;;5019271;28;20069;-92
2024/01/16 11:32:45;;;;;;;15.10;5.78;;;;;;;;;;5019167;28;20056;-92
2024/01/16 11:35:39;;;;;;;14.63;6.13;;;;;;;;;;5020988;28;20496;-92
2024/01/16 11:38:23;;;;;;;11.52;6.40;;;;;;;;;;5015330;28;20053;-92
2024/01/16 11:43:55;;;;;;;15.23;6.70;;;;;;;;;;5000163;28;20097;-92
2024/01/16 11:46:21;;;;;;;12.88;6.38;;;;;;;;;;5005349;28;20054;-92
2024/01/16 11:51:52;;;;;;;11.52;7.07;;;;;;;;;;5008921;28;20069;-93
2024/01/16 11:54:20;;;;;;;16.00;6.60;;;;;;;;;;5012017;28;20481;-93
2024/01/16 11:57:01;;;;;;;17.52;6.95;;;;;;;;;;5019530;28;20108;-92
2024/01/16 11:59:38;;;;;;;14.93;6.15;;;;;;;;;;5016686;28;20050;-92
2024/01/16 12:02:10;;;;;;;10.52;5.65;;;;;;;;;;4999630;28;20066;-92
2024/01/16 12:04:36;;;;;;;16.58;6.03;;;;;;;;;;4998812;28;20038;-92
2024/01/16 12:07:03;;;;;;;11.60;5.53;;;;;;;;;;4998491;28;20116;-92
2024/01/16 12:09:31;;;;;;;15.02;6.43;;;;;;;;;;4997698;28;20054;-93
2024/01/16 12:11:58;;;;;;;17.63;6.03;;;;;;;;;;5001473;28;20046;-93
2024/01/16 12:14:25;;;;;;;13.63;6.28;;;;;;;;;;5001120;28;20058;-92
2024/01/16 12:16:51;;;;;;;13.68;6.10;;;;;;;;;;4999453;28;20122;-92
2024/01/16 12:19:18;;;;;;;11.10;6.30;;;;;;;;;;5019440;28;20105;-91
2024/01/16 12:21:45;;;;;;;16.38;5.88;;;;;;;;;;5017973;28;20050;-91
2024/01/16 12:24:12;;;;;;;12.80;6.25;;;;;;;;;;5017460;28;20050;-91
2024/01/16 12:26:41;;;;;;;17.48;5.95;;;;;;;;;;5019138;28;20535;-90
2024/01/16 12:29:18;;;;;;;8.85;5.30;;;;;;;;;;5018821;28;20081;-92
2024/01/16 12:31:45;;;;;;;13.35;6.28;;;;;;;;;;5018835;28;20519;-92
2024/01/16 12:34:11;;;;;;;12.55;6.07;;;;;;;;;;5017921;28;20107;-91
2024/01/16 12:36:38;;;;;;;15.70;6.15;;;;;;;;;;5017261;28;20500;-91
2024/01/16 12:39:05;;;;;;;16.13;6.57;;;;;;;;;;5016947;28;20153;-90
2024/01/16 12:41:33;;;;;;;15.50;5.85;;;;;;;;;;5018503;28;20100;-91
2024/01/16 12:44:04;;;;;;;17.27;6.05;;;;;;;;;;5017781;28;20053;-91
2024/01/16 12:46:32;;;;;;;15.00;6.15;;;;;;;;;;5018513;28;20029;-91
2024/01/16 12:49:01;;;;;;;11.38;5.50;;;;;;;;;;5018003;28;20141;-92
2024/01/16 12:51:39;;;;;;;13.50;5.70;;;;;;;;;;5020973;28;20053;-91
2024/01/16 12:54:12;;;;;;;12.55;6.07;;;;;;;;;;5021625;28;20459;-91
2024/01/16 12:56:39;;;;;;;14.20;6.05;;;;;;;;;;5011570;28;20488;-91
2024/01/16 12:59:12;;;;;;;15.63;6.57;;;;;;;;;;4997748;28;20505;-91
2024/01/16 13:01:38;;;;;;;;;;;;;;;;;;4999645;28;20050;-91
2024/01/16 13:04:05;;;;;;;15.77;5.32;;;;;;;;;;4999974;28;20392;-91
2024/01/16 13:06:31;;;;;;;13.45;6.25;;;;;;;;;;4998090;28;20046;-92
2024/01/16 13:09:09;;;;;;;10.70;5.78;;;;;;;;;;5005246;28;20108;-91
2024/01/16 13:11:46;;;;;;;10.25;6.03;;;;;;;;;;5024199;28;20054;-91
2024/01/16 13:14:13;;;;;;;10.25;5.55;;;;;;;;;;5022311;28;20527;-91
2024/01/16 13:16:40;;;;;;;13.63;7.07;;;;;;;;;;5022897;28;20061;-91
2024/01/16 13:19:09;;;;;;;12.88;6.90;;;;;;;;;;5004993;28;20047;-91
2024/01/16 13:21:36;;;;;;;13.63;5.78;;;;;;;;;;5006653;28;20077;-91
2024/01/16 13:24:03;;;;;;;13.77;5.88;;;;;;;;;;5009000;28;20076;-92
2024/01/16 13:26:29;;;;;;;14.48;5.88;;;;;;;;;;5014595;28;20088;-91
2024/01/16 13:28:56;;;;;;;15.63;5.88;;;;;;;;;;5004531;28;20053;-91
2024/01/16 13:31:26;;;;;;;12.55;5.85;;;;;;;;;;5002540;28;20050;-91
2024/01/16 13:33:53;;;;;;;12.20;6.20;;;;;;;;;;5012099;28;20057;-90
2024/01/16 13:36:20;;;;;;;12.70;5.82;;;;;;;;;;5001499;28;20061;-91
2024/01/16 13:38:47;;;;;;;12.60;5.68;;;;;;;;;;5001809;28;20070;-90
2024/01/16 13:41:13;;;;;;;12.43;6.00;;;;;;;;;;5011658;28;20106;-91
2024/01/16 13:43:40;;;;;;;12.55;5.47;;;;;;;;;;5020368;28;20050;-92
2024/01/16 13:46:08;;;;;;;15.98;6.28;;;;;;;;;;5020445;28;20046;-90
2024/01/16 13:48:36;;;;;;;11.63;5.75;;;;;;;;;;5009216;28;20064;-91
2024/01/16 13:51:04;;;;;;;12.48;5.65;;;;;;;;;;5021236;28;20053;-90
2024/01/16 13:53:36;;;;;;;14.52;6.15;;;;;;;;;;5024497;28;20088;-91
2024/01/16 13:56:02;;;;;;;13.10;6.55;;;;;;;;;;5022676;28;20118;-91
2024/01/16 13:58:29;;;;;;;12.88;6.05;;;;;;;;;;5012827;28;20410;-91
2024/01/16 14:00:55;;;;;;;12.75;6.00;;;;;;;;;;5020303;28;20230;-92
2024/01/16 14:03:22;;;;;;;11.23;6.35;;;;;;;;;;5021452;28;20046;-91
2024/01/16 14:05:50;;;;;;;15.13;6.13;;;;;;;;;;5020422;28;20096;-92
2024/01/16 14:08:16;;;;;;;11.30;6.15;;;;;;;;;;5017813;28;20070;-91
2024/01/16 14:10:42;;;;;;;11.38;6.25;;;;;;;;;;5008274;28;20077;-91
2024/01/16 14:13:09;;;;;;;12.80;7.28;;;;;;;;;;5022145;28;20050;-91
2024/01/16 14:15:36;;;;;;;17.70;7.85;;;;;;;;;;5023869;28;20050;-90
2024/01/16 14:18:03;;;;;;;14.95;7.32;;;;;;;;;;5006577;28;20074;-91
2024/01/16 14:20:29;;;;;;;13.95;6.18;;;;;;;;;;5008119;28;20054;-90
2024/01/16 14:22:57;;;;;;;19.05;6.95;;;;;;;;;;5020774;28;20107;-91
2024/01/16 14:25:24;;;;;;;12.48;6.00;;;;;;;;;;5003236;28;20054;-92
2024/01/16 14:27:56;;;;;;;15.52;6.22;;;;;;;;;;5002064;28;20050;-91
2024/01/16 14:30:25;;;;;;;12.82;6.05;;;;;;;;;;5008600;28;20514;-91
2024/01/16 14:32:51;;;;;;;12.07;6.68;;;;;;;;;;5022901;28;20141;-91
2024/01/16 14:35:19;;;;;;;14.27;6.40;;;;;;;;;;5022251;28;20045;-91
2024/01/16 14:40:55;;;;;;;13.88;6.75;;;;;;;;;;4947355;28;20065;-90
2024/01/16 14:43:22;;;;;;;11.75;6.68;;;;;;;;;;4991784;28;20112;-90
2024/01/16 14:45:48;;;;;;;11.35;6.60;;;;;;;;;;5002798;28;20054;-90
2024/01/16 14:48:15;;;;;;;13.63;7.05;;;;;;;;;;5002255;28;20161;-91
2024/01/16 14:50:42;;;;;;;13.40;6.32;;;;;;;;;;5002686;28;20061;-91
2024/01/16 14:53:09;;;;;;;11.80;6.45;;;;;;;;;;5002288;28;20108;-91
2024/01/16 14:55:37;;;;;;;12.40;7.13;;;;;;;;;;5008117;28;20053;-90
2024/01/16 14:58:05;;;;;;;14.30;6.85;;;;;;;;;;5023028;28;20077;-90
2024/01/16 15:00:33;;;;;;;18.35;7.05;;;;;;;;;;5022515;28;20061;-91
2024/01/16 15:03:00;;;;;;;15.18;7.75;;;;;;;;;;5022185;28;20052;-89
2024/01/16 15:05:26;;;;;;;19.33;7.25;;;;;;;;;;5022252;28;20057;-90
2024/01/16 15:07:53;;;;;;;21.13;7.32;;;;;;;;;;5021725;28;20112;-91
2024/01/16 15:10:19;;;;;;;16.15;6.90;;;;;;;;;;5020296;28;20115;-91
2024/01/16 15:12:46;;;;;;;13.23;7.10;;;;;;;;;;5020360;28;20054;-91
2024/01/16 15:15:15;;;;;;;16.67;7.07;;;;;;;;;;5012961;28;20057;-88
2024/01/16 15:17:42;;;;;;;13.02;6.82;;;;;;;;;;5032166;28;20128;-92
2024/01/16 15:20:09;;;;;;;18.02;6.32;;;;;;;;;;5022154;28;20046;-91
2024/01/16 15:22:37;;;;;;;13.13;6.32;;;;;;;;;;5020112;28;20140;-90
2024/01/16 15:25:05;;;;;;;15.02;6.65;;;;;;;;;;5018523;28;20042;-91
2024/01/16 15:27:31;;;;;;;13.32;8.00;;;;;;;;;;5011931;28;20140;-90
2024/01/16 15:29:59;;;;;;;18.40;7.28;;;;;;;;;;5011336;28;20053;-92
2024/01/16 15:32:35;;;;;;;12.27;6.60;;;;;;;;;;5014416;28;20064;-91
2024/01/16 15:35:01;;;;;;;13.55;6.95;;;;;;;;;;5019603;28;20061;-92
2024/01/16 15:37:28;;;;;;;14.95;7.72;;;;;;;;;;5001813;28;20065;-91
2024/01/16 15:39:54;;;;;;;13.50;7.25;;;;;;;;;;5001007;28;20049;-92
2024/01/16 15:42:21;;;;;;;17.40;7.80;;;;;;;;;;5005912;28;20066;-90
2024/01/16 15:44:48;;;;;;;14.52;7.63;;;;;;;;;;5011767;28;20184;-90
2024/01/16 15:47:14;;;;;;;18.02;8.80;;;;;;;;;;5006729;28;20077;-91
2024/01/16 15:49:42;;;;;;;15.60;7.97;;;;;;;;;;5011180;28;20058;-90
2024/01/16 15:52:09;;;;;;;14.18;7.82;;;;;;;;;;5024680;28;20054;-89
2024/01/16 15:54:36;;;;;;;15.65;8.00;;;;;;;;;;5014686;28;20069;-92
2024/01/16 15:57:03;;;;;;;14.75;7.70;;;;;;;;;;5027680;28;20105;-89
2024/01/16 15:59:30;;;;;;;14.90;7.78;;;;;;;;;;5029846;28;20045;-91
2024/01/16 16:01:57;;;;;;;13.27;7.88;;;;;;;;;;5030292;28;20085;-90
2024/01/16 16:04:58;;;;;;;14.95;7.43;;;;;;;;;;5019168;28;20054;-90
2024/01/16 16:07:28;;;;;;;14.07;8.43;;;;;;;;;;5009654;28;20057;-90